F/V Pasiphae 2 — FMFN — position and weather

sailwx.info

Track history (hours):
 
Tides and Currents Weather Stations Pressure Air Temp Water Temp Dewpoint Dewpoint Depression Visibility Wind Speed Wind Dir Waves Ship Positions

F/V Pasiphae 2

Last reported at 2014-Oct-02 03:33 UTC. Time now 2014-Oct-02 04:24 UTC.
Position N 47°44' W 003°22'.

Length 14 m.

Type: Fishing. MMSI: 228224800.

Date/timePositionNaut miles runAvg speedWind from/ knotsBaromVisibWave heightAir tempDewpointWater temp
2014-Oct-02 03:33N 47°44' W 003°22'0 0.0
2014-Oct-02 02:33N 47°44' W 003°22'0 0.2
2014-Oct-02 01:33N 47°44' W 003°22'1 0.8
2014-Oct-02 00:33N 47°43' W 003°22'8 8.4
2014-Oct-01 23:33N 47°35' W 003°22'2 0.1
2014-Oct-01 01:33N 47°36' W 003°22'8 7.6
2014-Oct-01 00:33N 47°44' W 003°22'5 5.0
2014-Sep-30 23:33N 47°39' W 003°22'4 0.2
2014-Sep-30 02:18N 47°35' W 003°22'6 8.7
2014-Sep-30 01:33N 47°41' W 003°22'1 0.9
2014-Sep-30 00:33N 47°42' W 003°22'7 0.3
2014-Sep-29 02:33N 47°36' W 003°22'8 8.1
2014-Sep-29 01:33N 47°44' W 003°22'0 0.0
2014-Sep-27 01:22N 47°44' W 003°22'1 0.9
2014-Sep-27 00:33N 47°43' W 003°22'9 9.1
2014-Sep-26 23:33N 47°34' W 003°23'1 0.0
2014-Sep-26 02:17N 47°33' W 003°23'6 8.9
2014-Sep-26 01:34N 47°39' W 003°22'4 4.3
2014-Sep-26 00:34N 47°44' W 003°22'0 0.1
2014-Sep-25 23:33N 47°44' W 003°22'7 7.0
2014-Sep-25 22:33N 47°37' W 003°22'  
2014-Sep-22 19:04N 47°34' W 003°23'4 8.8
2014-Sep-22 18:33N 47°38' W 003°23'5 5.3
2014-Sep-22 17:33N 47°44' W 003°22'0 0.1
2014-Sep-22 16:33N 47°44' W 003°22'0 0.1
2014-Sep-22 15:33N 47°44' W 003°22'9 8.9
2014-Sep-22 14:33N 47°35' W 003°22'  
Track history (hours):
 
Tides and Currents Weather Stations Pressure Air Temp Water Temp Dewpoint Dewpoint Depression Visibility Wind Speed Wind Dir Waves Ship Positions

F/V Pasiphae 2

Last reported at 2014-Oct-02 03:33 UTC. Time now 2014-Oct-02 04:24 UTC.
Position N 47°44' W 003°22'.

Length 14 m.

Type: Fishing. MMSI: 228224800.

Date/timePositionNaut miles runAvg speedWind from/ knotsBaromVisibWave heightAir tempDewpointWater temp
2014-Oct-02 03:33N 47°44' W 003°22'0 0.0
2014-Oct-02 02:33N 47°44' W 003°22'0 0.2
2014-Oct-02 01:33N 47°44' W 003°22'1 0.8
2014-Oct-02 00:33N 47°43' W 003°22'8 8.4
2014-Oct-01 23:33N 47°35' W 003°22'2 0.1
2014-Oct-01 01:33N 47°36' W 003°22'8 7.6
2014-Oct-01 00:33N 47°44' W 003°22'5 5.0
2014-Sep-30 23:33N 47°39' W 003°22'4 0.2
2014-Sep-30 02:18N 47°35' W 003°22'6 8.7
2014-Sep-30 01:33N 47°41' W 003°22'1 0.9
2014-Sep-30 00:33N 47°42' W 003°22'7 0.3
2014-Sep-29 02:33N 47°36' W 003°22'8 8.1
2014-Sep-29 01:33N 47°44' W 003°22'0 0.0
2014-Sep-27 01:22N 47°44' W 003°22'1 0.9
2014-Sep-27 00:33N 47°43' W 003°22'9 9.1
2014-Sep-26 23:33N 47°34' W 003°23'1 0.0
2014-Sep-26 02:17N 47°33' W 003°23'6 8.9
2014-Sep-26 01:34N 47°39' W 003°22'4 4.3
2014-Sep-26 00:34N 47°44' W 003°22'0 0.1
2014-Sep-25 23:33N 47°44' W 003°22'7 7.0
2014-Sep-25 22:33N 47°37' W 003°22'  
2014-Sep-22 19:04N 47°34' W 003°23'4 8.8
2014-Sep-22 18:33N 47°38' W 003°23'5 5.3
2014-Sep-22 17:33N 47°44' W 003°22'0 0.1
2014-Sep-22 16:33N 47°44' W 003°22'0 0.1
2014-Sep-22 15:33N 47°44' W 003°22'9 8.9
2014-Sep-22 14:33N 47°35' W 003°22'  

Dump ship's entire track history